sensor_id;sensor_type;location;lat;lon;timestamp;P1;durP1;ratioP1;P2;durP2;ratioP2
10100;SDS011;5090;51.258;4.436;2022-11-20T00:01:42;22.97;;;14.33;;
10100;SDS011;5090;51.258;4.436;2022-11-20T00:04:11;21.23;;;13.97;;
10100;SDS011;5090;51.258;4.436;2022-11-20T00:06:39;20.83;;;13.57;;
10100;SDS011;5090;51.258;4.436;2022-11-20T00:09:09;21.60;;;14.33;;
10100;SDS011;5090;51.258;4.436;2022-11-20T00:11:35;21.27;;;13.40;;
10100;SDS011;5090;51.258;4.436;2022-11-20T00:14:03;19.50;;;13.30;;
10100;SDS011;5090;51.258;4.436;2022-11-20T00:16:32;23.03;;;13.73;;
10100;SDS011;5090;51.258;4.436;2022-11-20T00:19:00;23.87;;;15.67;;
10100;SDS011;5090;51.258;4.436;2022-11-20T00:21:29;19.27;;;12.93;;
10100;SDS011;5090;51.258;4.436;2022-11-20T00:23:57;24.47;;;14.53;;
10100;SDS011;5090;51.258;4.436;2022-11-20T00:26:25;19.53;;;13.50;;
10100;SDS011;5090;51.258;4.436;2022-11-20T00:28:55;22.57;;;14.50;;
10100;SDS011;5090;51.258;4.436;2022-11-20T00:31:22;19.93;;;13.77;;
10100;SDS011;5090;51.258;4.436;2022-11-20T00:33:50;21.17;;;13.60;;
10100;SDS011;5090;51.258;4.436;2022-11-20T00:36:19;20.13;;;13.87;;
10100;SDS011;5090;51.258;4.436;2022-11-20T00:38:47;24.00;;;14.23;;
10100;SDS011;5090;51.258;4.436;2022-11-20T00:41:15;19.90;;;13.67;;
10100;SDS011;5090;51.258;4.436;2022-11-20T00:43:43;19.67;;;12.70;;
10100;SDS011;5090;51.258;4.436;2022-11-20T00:46:14;21.57;;;13.63;;
10100;SDS011;5090;51.258;4.436;2022-11-20T00:48:41;22.67;;;13.83;;
10100;SDS011;5090;51.258;4.436;2022-11-20T00:51:10;23.90;;;14.17;;
10100;SDS011;5090;51.258;4.436;2022-11-20T00:53:38;22.90;;;13.63;;
10100;SDS011;5090;51.258;4.436;2022-11-20T00:56:07;20.40;;;14.53;;
10100;SDS011;5090;51.258;4.436;2022-11-20T00:58:35;20.17;;;13.90;;
10100;SDS011;5090;51.258;4.436;2022-11-20T01:01:03;23.73;;;14.87;;
10100;SDS011;5090;51.258;4.436;2022-11-20T01:03:32;19.83;;;14.47;;
10100;SDS011;5090;51.258;4.436;2022-11-20T01:06:02;21.00;;;13.93;;
10100;SDS011;5090;51.258;4.436;2022-11-20T01:08:30;25.03;;;13.67;;
10100;SDS011;5090;51.258;4.436;2022-11-20T01:10:59;24.13;;;14.00;;
10100;SDS011;5090;51.258;4.436;2022-11-20T01:13:26;21.37;;;13.53;;
10100;SDS011;5090;51.258;4.436;2022-11-20T01:16:02;20.80;;;13.37;;
10100;SDS011;5090;51.258;4.436;2022-11-20T01:18:29;22.00;;;13.70;;
10100;SDS011;5090;51.258;4.436;2022-11-20T01:21:00;21.30;;;13.87;;
10100;SDS011;5090;51.258;4.436;2022-11-20T01:23:30;20.80;;;13.90;;
10100;SDS011;5090;51.258;4.436;2022-11-20T01:25:56;22.00;;;14.00;;
10100;SDS011;5090;51.258;4.436;2022-11-20T01:28:24;21.07;;;13.73;;
10100;SDS011;5090;51.258;4.436;2022-11-20T01:30:52;23.37;;;14.07;;
10100;SDS011;5090;51.258;4.436;2022-11-20T01:33:21;22.27;;;13.53;;
10100;SDS011;5090;51.258;4.436;2022-11-20T01:35:49;22.53;;;14.13;;
10100;SDS011;5090;51.258;4.436;2022-11-20T01:38:17;22.03;;;14.80;;
10100;SDS011;5090;51.258;4.436;2022-11-20T01:40:53;21.33;;;13.90;;
10100;SDS011;5090;51.258;4.436;2022-11-20T01:43:17;22.43;;;14.63;;
10100;SDS011;5090;51.258;4.436;2022-11-20T01:48:24;20.20;;;13.37;;
10100;SDS011;5090;51.258;4.436;2022-11-20T01:50:51;21.53;;;15.10;;
10100;SDS011;5090;51.258;4.436;2022-11-20T01:53:21;21.00;;;14.70;;
10100;SDS011;5090;51.258;4.436;2022-11-20T01:55:48;21.03;;;14.23;;
10100;SDS011;5090;51.258;4.436;2022-11-20T01:58:16;21.33;;;13.73;;
10100;SDS011;5090;51.258;4.436;2022-11-20T02:00:44;30.30;;;14.80;;
10100;SDS011;5090;51.258;4.436;2022-11-20T02:03:13;23.07;;;13.90;;
10100;SDS011;5090;51.258;4.436;2022-11-20T02:05:43;21.97;;;14.13;;
10100;SDS011;5090;51.258;4.436;2022-11-20T02:08:10;18.77;;;13.23;;
10100;SDS011;5090;51.258;4.436;2022-11-20T02:10:38;21.70;;;13.90;;
10100;SDS011;5090;51.258;4.436;2022-11-20T02:13:06;22.03;;;14.47;;
10100;SDS011;5090;51.258;4.436;2022-11-20T02:15:40;25.33;;;14.37;;
10100;SDS011;5090;51.258;4.436;2022-11-20T02:18:09;20.97;;;14.30;;
10100;SDS011;5090;51.258;4.436;2022-11-20T02:20:37;18.60;;;13.63;;
10100;SDS011;5090;51.258;4.436;2022-11-20T02:23:08;20.40;;;13.67;;
10100;SDS011;5090;51.258;4.436;2022-11-20T02:25:33;23.30;;;15.13;;
10100;SDS011;5090;51.258;4.436;2022-11-20T02:28:02;19.97;;;13.87;;
10100;SDS011;5090;51.258;4.436;2022-11-20T02:30:30;21.93;;;14.70;;
10100;SDS011;5090;51.258;4.436;2022-11-20T02:32:58;22.63;;;14.40;;
10100;SDS011;5090;51.258;4.436;2022-11-20T02:35:42;22.20;;;14.27;;
10100;SDS011;5090;51.258;4.436;2022-11-20T02:38:09;22.37;;;15.00;;
10100;SDS011;5090;51.258;4.436;2022-11-20T02:40:38;25.50;;;16.20;;
10100;SDS011;5090;51.258;4.436;2022-11-20T02:43:06;22.70;;;14.90;;
10100;SDS011;5090;51.258;4.436;2022-11-20T02:45:34;22.20;;;14.77;;
10100;SDS011;5090;51.258;4.436;2022-11-20T02:48:02;21.17;;;13.53;;
10100;SDS011;5090;51.258;4.436;2022-11-20T02:50:30;23.03;;;14.13;;
10100;SDS011;5090;51.258;4.436;2022-11-20T02:52:59;21.57;;;14.50;;
10100;SDS011;5090;51.258;4.436;2022-11-20T02:55:27;23.33;;;14.83;;
10100;SDS011;5090;51.258;4.436;2022-11-20T02:57:55;27.27;;;18.57;;
10100;SDS011;5090;51.258;4.436;2022-11-20T03:00:23;23.73;;;14.97;;
10100;SDS011;5090;51.258;4.436;2022-11-20T03:02:52;22.83;;;14.87;;
10100;SDS011;5090;51.258;4.436;2022-11-20T03:05:20;23.40;;;14.57;;
10100;SDS011;5090;51.258;4.436;2022-11-20T03:07:52;22.43;;;14.70;;
10100;SDS011;5090;51.258;4.436;2022-11-20T03:10:20;20.93;;;13.60;;
10100;SDS011;5090;51.258;4.436;2022-11-20T03:12:52;21.33;;;14.00;;
10100;SDS011;5090;51.258;4.436;2022-11-20T03:15:16;22.37;;;15.07;;
10100;SDS011;5090;51.258;4.436;2022-11-20T03:17:45;21.97;;;14.43;;
10100;SDS011;5090;51.258;4.436;2022-11-20T03:20:13;22.20;;;14.30;;
10100;SDS011;5090;51.258;4.436;2022-11-20T03:22:41;21.20;;;13.07;;
10100;SDS011;5090;51.258;4.436;2022-11-20T03:25:09;22.23;;;14.90;;
10100;SDS011;5090;51.258;4.436;2022-11-20T03:27:37;22.57;;;14.10;;
10100;SDS011;5090;51.258;4.436;2022-11-20T03:30:06;25.53;;;15.00;;
10100;SDS011;5090;51.258;4.436;2022-11-20T03:32:34;22.97;;;15.17;;
10100;SDS011;5090;51.258;4.436;2022-11-20T03:35:03;21.67;;;14.13;;
10100;SDS011;5090;51.258;4.436;2022-11-20T03:37:31;24.57;;;15.67;;
10100;SDS011;5090;51.258;4.436;2022-11-20T03:39:59;22.67;;;14.17;;
10100;SDS011;5090;51.258;4.436;2022-11-20T03:42:27;22.77;;;15.07;;
10100;SDS011;5090;51.258;4.436;2022-11-20T03:45:01;28.07;;;15.87;;
10100;SDS011;5090;51.258;4.436;2022-11-20T03:47:30;23.70;;;15.47;;
10100;SDS011;5090;51.258;4.436;2022-11-20T03:49:58;21.10;;;14.07;;
10100;SDS011;5090;51.258;4.436;2022-11-20T03:52:26;24.57;;;15.63;;
10100;SDS011;5090;51.258;4.436;2022-11-20T03:54:54;24.87;;;14.80;;
10100;SDS011;5090;51.258;4.436;2022-11-20T03:57:22;21.47;;;14.83;;
10100;SDS011;5090;51.258;4.436;2022-11-20T03:59:51;26.30;;;16.00;;
10100;SDS011;5090;51.258;4.436;2022-11-20T04:02:19;22.50;;;14.33;;
10100;SDS011;5090;51.258;4.436;2022-11-20T04:04:47;22.07;;;14.97;;
10100;SDS011;5090;51.258;4.436;2022-11-20T04:07:15;27.63;;;16.27;;
10100;SDS011;5090;51.258;4.436;2022-11-20T04:09:43;25.43;;;16.20;;
10100;SDS011;5090;51.258;4.436;2022-11-20T04:12:12;31.93;;;16.70;;
10100;SDS011;5090;51.258;4.436;2022-11-20T04:14:40;29.83;;;17.67;;
10100;SDS011;5090;51.258;4.436;2022-11-20T04:17:08;39.53;;;20.30;;
10100;SDS011;5090;51.258;4.436;2022-11-20T04:19:36;43.43;;;23.03;;
10100;SDS011;5090;51.258;4.436;2022-11-20T04:22:04;41.13;;;23.37;;
10100;SDS011;5090;51.258;4.436;2022-11-20T04:24:33;52.87;;;24.87;;
10100;SDS011;5090;51.258;4.436;2022-11-20T04:27:01;42.30;;;23.27;;
10100;SDS011;5090;51.258;4.436;2022-11-20T04:29:29;45.03;;;24.30;;
10100;SDS011;5090;51.258;4.436;2022-11-20T04:31:57;51.13;;;26.10;;
10100;SDS011;5090;51.258;4.436;2022-11-20T04:34:26;46.30;;;25.73;;
10100;SDS011;5090;51.258;4.436;2022-11-20T04:36:54;45.43;;;24.70;;
10100;SDS011;5090;51.258;4.436;2022-11-20T04:39:22;46.57;;;24.37;;
10100;SDS011;5090;51.258;4.436;2022-11-20T04:41:50;47.33;;;25.77;;
10100;SDS011;5090;51.258;4.436;2022-11-20T04:44:19;42.97;;;22.43;;
10100;SDS011;5090;51.258;4.436;2022-11-20T04:46:47;44.60;;;23.67;;
10100;SDS011;5090;51.258;4.436;2022-11-20T04:49:15;44.70;;;24.00;;
10100;SDS011;5090;51.258;4.436;2022-11-20T04:51:43;44.83;;;23.33;;
10100;SDS011;5090;51.258;4.436;2022-11-20T04:54:11;41.60;;;22.63;;
10100;SDS011;5090;51.258;4.436;2022-11-20T04:56:40;45.67;;;24.57;;
10100;SDS011;5090;51.258;4.436;2022-11-20T04:59:08;44.60;;;23.50;;
10100;SDS011;5090;51.258;4.436;2022-11-20T05:01:36;49.03;;;24.97;;
10100;SDS011;5090;51.258;4.436;2022-11-20T05:04:04;47.97;;;25.93;;
10100;SDS011;5090;51.258;4.436;2022-11-20T05:06:32;45.03;;;24.30;;
10100;SDS011;5090;51.258;4.436;2022-11-20T05:09:01;46.53;;;24.93;;
10100;SDS011;5090;51.258;4.436;2022-11-20T05:11:29;49.77;;;25.63;;
10100;SDS011;5090;51.258;4.436;2022-11-20T05:13:58;47.77;;;25.70;;
10100;SDS011;5090;51.258;4.436;2022-11-20T05:16:25;45.53;;;24.13;;
10100;SDS011;5090;51.258;4.436;2022-11-20T05:18:54;47.93;;;24.30;;
10100;SDS011;5090;51.258;4.436;2022-11-20T05:21:22;44.47;;;24.50;;
10100;SDS011;5090;51.258;4.436;2022-11-20T05:23:50;47.83;;;25.20;;
10100;SDS011;5090;51.258;4.436;2022-11-20T05:26:19;45.03;;;25.13;;
10100;SDS011;5090;51.258;4.436;2022-11-20T05:28:47;45.57;;;25.80;;
10100;SDS011;5090;51.258;4.436;2022-11-20T05:31:16;49.00;;;26.90;;
10100;SDS011;5090;51.258;4.436;2022-11-20T05:33:44;48.47;;;25.07;;
10100;SDS011;5090;51.258;4.436;2022-11-20T05:36:12;49.33;;;25.90;;
10100;SDS011;5090;51.258;4.436;2022-11-20T05:38:41;50.80;;;27.33;;
10100;SDS011;5090;51.258;4.436;2022-11-20T05:41:11;54.47;;;27.23;;
10100;SDS011;5090;51.258;4.436;2022-11-20T05:43:38;48.57;;;25.77;;
10100;SDS011;5090;51.258;4.436;2022-11-20T05:46:06;43.13;;;24.13;;
10100;SDS011;5090;51.258;4.436;2022-11-20T05:48:34;44.30;;;25.93;;
10100;SDS011;5090;51.258;4.436;2022-11-20T05:51:03;43.07;;;24.57;;
10100;SDS011;5090;51.258;4.436;2022-11-20T05:53:31;43.43;;;25.77;;
10100;SDS011;5090;51.258;4.436;2022-11-20T05:56:00;46.17;;;25.33;;
10100;SDS011;5090;51.258;4.436;2022-11-20T05:58:28;46.40;;;26.67;;
10100;SDS011;5090;51.258;4.436;2022-11-20T06:01:03;45.60;;;25.73;;
10100;SDS011;5090;51.258;4.436;2022-11-20T06:03:24;46.70;;;26.23;;
10100;SDS011;5090;51.258;4.436;2022-11-20T06:05:52;42.53;;;25.43;;
10100;SDS011;5090;51.258;4.436;2022-11-20T06:08:20;45.07;;;25.07;;
10100;SDS011;5090;51.258;4.436;2022-11-20T06:10:48;43.37;;;23.93;;
10100;SDS011;5090;51.258;4.436;2022-11-20T06:13:17;44.07;;;24.83;;
10100;SDS011;5090;51.258;4.436;2022-11-20T06:15:50;44.20;;;24.90;;
10100;SDS011;5090;51.258;4.436;2022-11-20T06:18:17;46.50;;;25.67;;
10100;SDS011;5090;51.258;4.436;2022-11-20T06:20:47;48.30;;;26.00;;
10100;SDS011;5090;51.258;4.436;2022-11-20T06:23:15;45.83;;;26.50;;
10100;SDS011;5090;51.258;4.436;2022-11-20T06:25:43;51.73;;;26.33;;
10100;SDS011;5090;51.258;4.436;2022-11-20T06:28:11;49.67;;;26.73;;
10100;SDS011;5090;51.258;4.436;2022-11-20T06:30:44;44.37;;;25.13;;
10100;SDS011;5090;51.258;4.436;2022-11-20T06:33:08;46.27;;;25.13;;
10100;SDS011;5090;51.258;4.436;2022-11-20T06:35:36;44.17;;;24.60;;
10100;SDS011;5090;51.258;4.436;2022-11-20T06:38:04;40.93;;;24.67;;
10100;SDS011;5090;51.258;4.436;2022-11-20T06:40:32;45.37;;;26.67;;
10100;SDS011;5090;51.258;4.436;2022-11-20T06:43:01;47.57;;;25.97;;
10100;SDS011;5090;51.258;4.436;2022-11-20T06:45:29;48.03;;;25.97;;
10100;SDS011;5090;51.258;4.436;2022-11-20T06:47:57;39.47;;;23.77;;
10100;SDS011;5090;51.258;4.436;2022-11-20T06:50:25;49.03;;;25.67;;
10100;SDS011;5090;51.258;4.436;2022-11-20T06:52:54;46.67;;;26.10;;
10100;SDS011;5090;51.258;4.436;2022-11-20T06:55:22;44.07;;;24.70;;
10100;SDS011;5090;51.258;4.436;2022-11-20T06:57:50;43.73;;;24.83;;
10100;SDS011;5090;51.258;4.436;2022-11-20T07:00:18;53.67;;;31.87;;
10100;SDS011;5090;51.258;4.436;2022-11-20T07:02:46;50.00;;;26.40;;
10100;SDS011;5090;51.258;4.436;2022-11-20T07:05:15;47.20;;;25.27;;
10100;SDS011;5090;51.258;4.436;2022-11-20T07:07:43;47.97;;;25.40;;
10100;SDS011;5090;51.258;4.436;2022-11-20T07:10:11;51.10;;;24.30;;
10100;SDS011;5090;51.258;4.436;2022-11-20T07:12:39;48.07;;;25.70;;
10100;SDS011;5090;51.258;4.436;2022-11-20T07:15:08;46.23;;;25.03;;
10100;SDS011;5090;51.258;4.436;2022-11-20T07:17:36;46.30;;;24.67;;
10100;SDS011;5090;51.258;4.436;2022-11-20T07:20:04;50.10;;;25.67;;
10100;SDS011;5090;51.258;4.436;2022-11-20T07:22:33;49.10;;;25.17;;
10100;SDS011;5090;51.258;4.436;2022-11-20T07:25:01;50.20;;;25.67;;
10100;SDS011;5090;51.258;4.436;2022-11-20T07:27:29;49.77;;;25.50;;
10100;SDS011;5090;51.258;4.436;2022-11-20T07:29:57;44.97;;;25.83;;
10100;SDS011;5090;51.258;4.436;2022-11-20T07:32:26;52.57;;;24.53;;
10100;SDS011;5090;51.258;4.436;2022-11-20T07:34:54;50.87;;;25.17;;
10100;SDS011;5090;51.258;4.436;2022-11-20T07:37:22;50.57;;;26.03;;
10100;SDS011;5090;51.258;4.436;2022-11-20T07:39:50;46.83;;;25.40;;
10100;SDS011;5090;51.258;4.436;2022-11-20T07:42:19;45.13;;;23.50;;
10100;SDS011;5090;51.258;4.436;2022-11-20T07:44:47;43.47;;;24.43;;
10100;SDS011;5090;51.258;4.436;2022-11-20T07:47:15;47.87;;;24.63;;
10100;SDS011;5090;51.258;4.436;2022-11-20T07:49:43;42.87;;;24.80;;
10100;SDS011;5090;51.258;4.436;2022-11-20T07:52:11;45.43;;;23.47;;
10100;SDS011;5090;51.258;4.436;2022-11-20T07:54:40;49.97;;;26.20;;
10100;SDS011;5090;51.258;4.436;2022-11-20T07:57:08;42.70;;;24.40;;
10100;SDS011;5090;51.258;4.436;2022-11-20T07:59:36;45.13;;;24.10;;
10100;SDS011;5090;51.258;4.436;2022-11-20T08:02:04;43.83;;;25.43;;
10100;SDS011;5090;51.258;4.436;2022-11-20T08:04:32;45.50;;;24.40;;
10100;SDS011;5090;51.258;4.436;2022-11-20T08:07:01;48.00;;;25.30;;
10100;SDS011;5090;51.258;4.436;2022-11-20T08:09:29;45.80;;;25.73;;
10100;SDS011;5090;51.258;4.436;2022-11-20T08:11:57;41.77;;;24.37;;
10100;SDS011;5090;51.258;4.436;2022-11-20T08:14:31;46.43;;;24.67;;
10100;SDS011;5090;51.258;4.436;2022-11-20T08:16:59;47.80;;;23.93;;
10100;SDS011;5090;51.258;4.436;2022-11-20T08:19:27;48.27;;;24.00;;
10100;SDS011;5090;51.258;4.436;2022-11-20T08:21:56;44.03;;;24.53;;
10100;SDS011;5090;51.258;4.436;2022-11-20T08:24:24;43.33;;;24.67;;
10100;SDS011;5090;51.258;4.436;2022-11-20T08:26:52;42.70;;;22.97;;
10100;SDS011;5090;51.258;4.436;2022-11-20T08:29:20;45.60;;;24.43;;
10100;SDS011;5090;51.258;4.436;2022-11-20T08:31:49;46.67;;;25.33;;
10100;SDS011;5090;51.258;4.436;2022-11-20T08:34:17;45.10;;;23.97;;
10100;SDS011;5090;51.258;4.436;2022-11-20T08:36:46;48.60;;;24.20;;
10100;SDS011;5090;51.258;4.436;2022-11-20T08:39:14;45.23;;;23.73;;
10100;SDS011;5090;51.258;4.436;2022-11-20T08:41:42;46.43;;;24.40;;
10100;SDS011;5090;51.258;4.436;2022-11-20T08:44:10;46.17;;;24.33;;
10100;SDS011;5090;51.258;4.436;2022-11-20T08:46:40;43.87;;;24.37;;
10100;SDS011;5090;51.258;4.436;2022-11-20T08:49:08;47.30;;;25.37;;
10100;SDS011;5090;51.258;4.436;2022-11-20T08:51:35;47.53;;;24.07;;
10100;SDS011;5090;51.258;4.436;2022-11-20T08:54:03;43.80;;;24.57;;
10100;SDS011;5090;51.258;4.436;2022-11-20T08:56:32;44.30;;;24.33;;
10100;SDS011;5090;51.258;4.436;2022-11-20T08:59:00;46.90;;;24.70;;
10100;SDS011;5090;51.258;4.436;2022-11-20T09:01:28;41.60;;;23.40;;
10100;SDS011;5090;51.258;4.436;2022-11-20T09:03:56;43.77;;;23.70;;
10100;SDS011;5090;51.258;4.436;2022-11-20T09:06:25;42.57;;;22.80;;
10100;SDS011;5090;51.258;4.436;2022-11-20T09:08:53;39.50;;;23.43;;
10100;SDS011;5090;51.258;4.436;2022-11-20T09:11:22;48.07;;;23.30;;
10100;SDS011;5090;51.258;4.436;2022-11-20T09:13:50;42.37;;;22.90;;
10100;SDS011;5090;51.258;4.436;2022-11-20T09:16:18;45.57;;;24.33;;
10100;SDS011;5090;51.258;4.436;2022-11-20T09:18:49;48.07;;;23.40;;
10100;SDS011;5090;51.258;4.436;2022-11-20T09:21:15;52.27;;;26.73;;
10100;SDS011;5090;51.258;4.436;2022-11-20T09:23:43;45.97;;;24.77;;
10100;SDS011;5090;51.258;4.436;2022-11-20T09:26:12;45.93;;;24.30;;
10100;SDS011;5090;51.258;4.436;2022-11-20T09:28:40;43.67;;;23.50;;
10100;SDS011;5090;51.258;4.436;2022-11-20T09:31:11;41.20;;;22.17;;
10100;SDS011;5090;51.258;4.436;2022-11-20T09:33:37;42.30;;;23.70;;
10100;SDS011;5090;51.258;4.436;2022-11-20T09:36:05;44.60;;;23.17;;
10100;SDS011;5090;51.258;4.436;2022-11-20T09:38:34;46.07;;;24.07;;
10100;SDS011;5090;51.258;4.436;2022-11-20T09:41:03;47.00;;;23.17;;
10100;SDS011;5090;51.258;4.436;2022-11-20T09:43:50;48.37;;;24.67;;
10100;SDS011;5090;51.258;4.436;2022-11-20T09:46:26;48.17;;;23.20;;
10100;SDS011;5090;51.258;4.436;2022-11-20T09:51:30;47.03;;;24.67;;
10100;SDS011;5090;51.258;4.436;2022-11-20T09:54:00;50.70;;;24.63;;
10100;SDS011;5090;51.258;4.436;2022-11-20T09:56:26;48.30;;;24.13;;
10100;SDS011;5090;51.258;4.436;2022-11-20T09:58:54;46.63;;;25.13;;
10100;SDS011;5090;51.258;4.436;2022-11-20T10:01:26;50.97;;;24.57;;
10100;SDS011;5090;51.258;4.436;2022-11-20T10:03:54;49.40;;;24.67;;
10100;SDS011;5090;51.258;4.436;2022-11-20T10:06:24;48.33;;;24.43;;
10100;SDS011;5090;51.258;4.436;2022-11-20T10:08:55;48.77;;;24.33;;
10100;SDS011;5090;51.258;4.436;2022-11-20T10:11:23;50.40;;;24.73;;
10100;SDS011;5090;51.258;4.436;2022-11-20T10:16:41;53.83;;;26.50;;
10100;SDS011;5090;51.258;4.436;2022-11-20T10:19:10;45.67;;;25.10;;
10100;SDS011;5090;51.258;4.436;2022-11-20T10:21:38;53.10;;;25.87;;
10100;SDS011;5090;51.258;4.436;2022-11-20T10:24:23;57.00;;;25.13;;
10100;SDS011;5090;51.258;4.436;2022-11-20T10:26:48;53.90;;;25.23;;
10100;SDS011;5090;51.258;4.436;2022-11-20T10:29:14;52.33;;;25.27;;
10100;SDS011;5090;51.258;4.436;2022-11-20T10:31:43;51.83;;;24.97;;
10100;SDS011;5090;51.258;4.436;2022-11-20T10:34:22;55.87;;;26.37;;
10100;SDS011;5090;51.258;4.436;2022-11-20T10:36:56;58.13;;;26.60;;
10100;SDS011;5090;51.258;4.436;2022-11-20T10:41:57;56.07;;;26.50;;
10100;SDS011;5090;51.258;4.436;2022-11-20T10:44:26;60.80;;;26.37;;
10100;SDS011;5090;51.258;4.436;2022-11-20T10:46:59;69.50;;;29.83;;
10100;SDS011;5090;51.258;4.436;2022-11-20T10:49:28;57.47;;;26.30;;
10100;SDS011;5090;51.258;4.436;2022-11-20T10:52:02;61.43;;;26.87;;
10100;SDS011;5090;51.258;4.436;2022-11-20T10:54:33;64.17;;;27.63;;
10100;SDS011;5090;51.258;4.436;2022-11-20T10:57:01;60.23;;;26.73;;
10100;SDS011;5090;51.258;4.436;2022-11-20T11:02:23;67.47;;;26.37;;
10100;SDS011;5090;51.258;4.436;2022-11-20T11:04:52;63.47;;;27.33;;
10100;SDS011;5090;51.258;4.436;2022-11-20T11:07:25;54.63;;;25.40;;
10100;SDS011;5090;51.258;4.436;2022-11-20T11:09:52;63.93;;;26.60;;
10100;SDS011;5090;51.258;4.436;2022-11-20T11:12:20;67.03;;;26.50;;
10100;SDS011;5090;51.258;4.436;2022-11-20T11:14:50;64.53;;;26.13;;
10100;SDS011;5090;51.258;4.436;2022-11-20T11:17:21;65.07;;;26.70;;
10100;SDS011;5090;51.258;4.436;2022-11-20T11:22:22;68.53;;;27.27;;
10100;SDS011;5090;51.258;4.436;2022-11-20T11:24:52;63.03;;;26.57;;
10100;SDS011;5090;51.258;4.436;2022-11-20T11:27:19;70.07;;;28.57;;
10100;SDS011;5090;51.258;4.436;2022-11-20T11:29:48;60.23;;;26.40;;
10100;SDS011;5090;51.258;4.436;2022-11-20T11:32:18;69.13;;;26.33;;
10100;SDS011;5090;51.258;4.436;2022-11-20T11:34:57;63.43;;;25.43;;
10100;SDS011;5090;51.258;4.436;2022-11-20T11:37:17;62.20;;;25.63;;
10100;SDS011;5090;51.258;4.436;2022-11-20T11:39:43;63.27;;;25.87;;
10100;SDS011;5090;51.258;4.436;2022-11-20T11:42:12;67.00;;;28.03;;
10100;SDS011;5090;51.258;4.436;2022-11-20T11:44:43;64.60;;;27.27;;
10100;SDS011;5090;51.258;4.436;2022-11-20T11:47:31;68.57;;;27.07;;
10100;SDS011;5090;51.258;4.436;2022-11-20T11:50:16;71.70;;;26.50;;
10100;SDS011;5090;51.258;4.436;2022-11-20T11:52:54;61.37;;;26.20;;
10100;SDS011;5090;51.258;4.436;2022-11-20T11:58:07;65.50;;;25.87;;
10100;SDS011;5090;51.258;4.436;2022-11-20T12:00:32;57.37;;;25.43;;
10100;SDS011;5090;51.258;4.436;2022-11-20T12:03:05;62.00;;;25.70;;
10100;SDS011;5090;51.258;4.436;2022-11-20T12:05:36;63.97;;;25.30;;
10100;SDS011;5090;51.258;4.436;2022-11-20T12:08:05;54.03;;;23.97;;
10100;SDS011;5090;51.258;4.436;2022-11-20T12:10:37;53.63;;;22.77;;
10100;SDS011;5090;51.258;4.436;2022-11-20T12:13:02;60.03;;;22.90;;
10100;SDS011;5090;51.258;4.436;2022-11-20T12:15:29;52.60;;;23.33;;
10100;SDS011;5090;51.258;4.436;2022-11-20T12:17:57;51.03;;;23.83;;
10100;SDS011;5090;51.258;4.436;2022-11-20T12:20:27;51.47;;;23.30;;
10100;SDS011;5090;51.258;4.436;2022-11-20T12:23:01;46.97;;;21.90;;
10100;SDS011;5090;51.258;4.436;2022-11-20T12:25:30;52.67;;;22.37;;
10100;SDS011;5090;51.258;4.436;2022-11-20T12:30:48;45.47;;;21.33;;
10100;SDS011;5090;51.258;4.436;2022-11-20T12:33:18;45.67;;;20.83;;
10100;SDS011;5090;51.258;4.436;2022-11-20T12:35:49;46.53;;;21.30;;
10100;SDS011;5090;51.258;4.436;2022-11-20T12:39:22;47.53;;;21.50;;
10100;SDS011;5090;51.258;4.436;2022-11-20T12:41:00;44.20;;;19.93;;
10100;SDS011;5090;51.258;4.436;2022-11-20T12:43:26;42.20;;;20.40;;
10100;SDS011;5090;51.258;4.436;2022-11-20T12:46:03;43.90;;;19.90;;
10100;SDS011;5090;51.258;4.436;2022-11-20T12:48:33;45.53;;;19.63;;
10100;SDS011;5090;51.258;4.436;2022-11-20T12:51:06;42.23;;;18.73;;
10100;SDS011;5090;51.258;4.436;2022-11-20T12:53:31;40.70;;;18.93;;
10100;SDS011;5090;51.258;4.436;2022-11-20T12:58:55;41.07;;;17.37;;
10100;SDS011;5090;51.258;4.436;2022-11-20T13:01:23;38.50;;;17.43;;
10100;SDS011;5090;51.258;4.436;2022-11-20T13:03:49;37.80;;;16.53;;
10100;SDS011;5090;51.258;4.436;2022-11-20T13:06:18;40.37;;;18.13;;
10100;SDS011;5090;51.258;4.436;2022-11-20T13:08:50;40.40;;;18.37;;
10100;SDS011;5090;51.258;4.436;2022-11-20T13:11:20;45.13;;;18.13;;
10100;SDS011;5090;51.258;4.436;2022-11-20T13:16:25;32.43;;;15.10;;
10100;SDS011;5090;51.258;4.436;2022-11-20T13:18:52;27.07;;;11.43;;
10100;SDS011;5090;51.258;4.436;2022-11-20T13:21:22;20.50;;;10.10;;
10100;SDS011;5090;51.258;4.436;2022-11-20T13:23:49;17.80;;;8.57;;
10100;SDS011;5090;51.258;4.436;2022-11-20T13:26:19;16.17;;;8.57;;
10100;SDS011;5090;51.258;4.436;2022-11-20T13:28:47;14.80;;;6.37;;
10100;SDS011;5090;51.258;4.436;2022-11-20T13:33:49;11.53;;;5.50;;
10100;SDS011;5090;51.258;4.436;2022-11-20T13:36:21;12.60;;;5.67;;
10100;SDS011;5090;51.258;4.436;2022-11-20T13:38:49;14.97;;;5.50;;
10100;SDS011;5090;51.258;4.436;2022-11-20T13:41:38;11.97;;;6.00;;
10100;SDS011;5090;51.258;4.436;2022-11-20T13:44:10;15.20;;;5.97;;
10100;SDS011;5090;51.258;4.436;2022-11-20T13:46:39;9.50;;;4.70;;
10100;SDS011;5090;51.258;4.436;2022-11-20T13:49:08;8.30;;;5.37;;
10100;SDS011;5090;51.258;4.436;2022-11-20T13:54:15;11.50;;;5.87;;
10100;SDS011;5090;51.258;4.436;2022-11-20T13:56:43;11.97;;;5.70;;
10100;SDS011;5090;51.258;4.436;2022-11-20T14:00:15;14.87;;;5.93;;
10100;SDS011;5090;51.258;4.436;2022-11-20T14:01:51;12.30;;;6.30;;
10100;SDS011;5090;51.258;4.436;2022-11-20T14:04:23;16.60;;;6.50;;
10100;SDS011;5090;51.258;4.436;2022-11-20T14:06:48;10.93;;;6.00;;
10100;SDS011;5090;51.258;4.436;2022-11-20T14:11:50;8.70;;;6.00;;
10100;SDS011;5090;51.258;4.436;2022-11-20T14:14:19;13.50;;;6.07;;
10100;SDS011;5090;51.258;4.436;2022-11-20T14:16:47;7.93;;;5.80;;
10100;SDS011;5090;51.258;4.436;2022-11-20T14:19:24;9.53;;;5.63;;
10100;SDS011;5090;51.258;4.436;2022-11-20T14:21:52;11.20;;;5.47;;
10100;SDS011;5090;51.258;4.436;2022-11-20T14:24:20;12.93;;;5.70;;
10100;SDS011;5090;51.258;4.436;2022-11-20T14:26:48;9.40;;;5.97;;
10100;SDS011;5090;51.258;4.436;2022-11-20T14:29:17;11.93;;;5.93;;
10100;SDS011;5090;51.258;4.436;2022-11-20T14:31:45;8.50;;;5.50;;
10100;SDS011;5090;51.258;4.436;2022-11-20T14:34:15;13.80;;;6.03;;
10100;SDS011;5090;51.258;4.436;2022-11-20T14:36:42;8.93;;;6.17;;
10100;SDS011;5090;51.258;4.436;2022-11-20T14:39:19;8.40;;;5.60;;
10100;SDS011;5090;51.258;4.436;2022-11-20T14:41:49;11.87;;;6.60;;
10100;SDS011;5090;51.258;4.436;2022-11-20T14:44:08;9.63;;;5.93;;
10100;SDS011;5090;51.258;4.436;2022-11-20T14:46:38;7.53;;;5.43;;
10100;SDS011;5090;51.258;4.436;2022-11-20T14:49:08;10.87;;;6.00;;
10100;SDS011;5090;51.258;4.436;2022-11-20T14:51:35;18.03;;;6.20;;
10100;SDS011;5090;51.258;4.436;2022-11-20T14:54:09;10.73;;;5.27;;
10100;SDS011;5090;51.258;4.436;2022-11-20T14:56:36;7.60;;;4.57;;
10100;SDS011;5090;51.258;4.436;2022-11-20T14:59:05;9.63;;;4.23;;
10100;SDS011;5090;51.258;4.436;2022-11-20T15:01:33;7.53;;;4.70;;
10100;SDS011;5090;51.258;4.436;2022-11-20T15:04:06;7.63;;;4.87;;
10100;SDS011;5090;51.258;4.436;2022-11-20T15:06:33;6.67;;;4.43;;
10100;SDS011;5090;51.258;4.436;2022-11-20T15:09:04;6.03;;;4.53;;
10100;SDS011;5090;51.258;4.436;2022-11-20T15:11:33;8.83;;;4.70;;
10100;SDS011;5090;51.258;4.436;2022-11-20T15:14:02;7.90;;;4.03;;
10100;SDS011;5090;51.258;4.436;2022-11-20T15:16:30;7.07;;;4.90;;
10100;SDS011;5090;51.258;4.436;2022-11-20T15:18:58;7.67;;;5.10;;
10100;SDS011;5090;51.258;4.436;2022-11-20T15:21:26;5.80;;;4.53;;
10100;SDS011;5090;51.258;4.436;2022-11-20T15:23:55;9.07;;;5.77;;